Time;durP1;ratioP1;P1;durP2;ratioP2;P2;SDS_P1;SDS_P2;PMS_P1;PMS_P2;Temp;Humidity;BMP_temperature;BMP_pressure;BME280_temperature;BME280_humidity;BME280_pressure;Samples;Min_cycle;Max_cycle;Signal;HPM_P1;HPM_P2
2022/03/08 00:01:38;;;;;;;25.92;9.82;;;;;;;;;;4864683;29;20109;-89
2022/03/08 00:04:04;;;;;;;22.40;9.73;;;;;;;;;;4864761;29;20184;-89
2022/03/08 00:06:31;;;;;;;20.70;8.85;;;;;;;;;;4864720;29;20107;-87
2022/03/08 00:08:57;;;;;;;21.38;8.98;;;;;;;;;;4864139;29;20021;-89
2022/03/08 00:11:24;;;;;;;22.17;8.60;;;;;;;;;;4864534;29;20029;-89
2022/03/08 00:13:51;;;;;;;20.50;8.25;;;;;;;;;;4863665;29;20044;-88
2022/03/08 00:16:18;;;;;;;20.08;8.65;;;;;;;;;;4864513;29;20041;-89
2022/03/08 00:18:44;;;;;;;17.35;7.82;;;;;;;;;;4864486;29;20036;-90
2022/03/08 00:21:14;;;;;;;17.58;8.30;;;;;;;;;;4863872;29;20033;-89
2022/03/08 00:23:40;;;;;;;21.45;8.75;;;;;;;;;;4880757;29;20041;-89
2022/03/08 00:26:06;;;;;;;22.77;8.23;;;;;;;;;;4864204;29;20096;-89
2022/03/08 00:28:32;;;;;;;23.25;8.00;;;;;;;;;;4864565;29;20033;-89
2022/03/08 00:31:00;;;;;;;16.15;7.43;;;;;;;;;;4864233;29;20029;-86
2022/03/08 00:33:26;;;;;;;17.80;8.32;;;;;;;;;;4877907;23;20045;-89
2022/03/08 00:35:55;;;;;;;20.55;7.90;;;;;;;;;;4861666;29;20033;-89
2022/03/08 00:38:22;;;;;;;18.13;7.80;;;;;;;;;;4864779;29;20403;-88
2022/03/08 00:40:48;;;;;;;21.23;8.55;;;;;;;;;;4877642;29;20124;-87
2022/03/08 00:43:14;;;;;;;18.08;8.05;;;;;;;;;;4865406;29;20089;-87
2022/03/08 00:45:40;;;;;;;21.65;8.55;;;;;;;;;;4862050;29;20062;-89
2022/03/08 00:48:07;;;;;;;18.67;8.13;;;;;;;;;;4860904;29;20033;-87
2022/03/08 00:50:33;;;;;;;18.88;8.07;;;;;;;;;;4860509;29;20036;-90
2022/03/08 00:53:00;;;;;;;19.35;7.88;;;;;;;;;;4860730;29;20078;-89
2022/03/08 00:55:28;;;;;;;17.58;7.38;;;;;;;;;;4860713;29;20387;-87
2022/03/08 00:57:54;;;;;;;19.17;7.97;;;;;;;;;;4860597;29;20455;-89
2022/03/08 01:00:22;;;;;;;19.23;8.00;;;;;;;;;;4860520;29;20033;-87
2022/03/08 01:02:48;;;;;;;19.58;7.75;;;;;;;;;;4861443;29;20029;-88
2022/03/08 01:05:15;;;;;;;24.08;8.18;;;;;;;;;;4860561;29;20033;-90
2022/03/08 01:07:41;;;;;;;16.83;7.35;;;;;;;;;;4860219;29;20049;-89
2022/03/08 01:10:09;;;;;;;20.42;7.32;;;;;;;;;;4860653;29;20030;-89
2022/03/08 01:12:35;;;;;;;17.85;7.63;;;;;;;;;;4861103;29;20514;-88
2022/03/08 01:15:01;;;;;;;14.77;7.13;;;;;;;;;;4860260;29;20061;-88
2022/03/08 01:17:28;;;;;;;18.90;7.90;;;;;;;;;;4860357;29;20037;-87
2022/03/08 01:19:57;;;;;;;23.73;7.18;;;;;;;;;;4860717;29;20040;-89
2022/03/08 01:22:23;;;;;;;18.23;8.20;;;;;;;;;;4860682;29;20037;-89
2022/03/08 01:24:56;;;;;;;15.25;7.45;;;;;;;;;;4861120;29;20400;-88
2022/03/08 01:27:28;;;;;;;19.95;8.38;;;;;;;;;;4864228;29;20033;-88
2022/03/08 01:29:55;;;;;;;20.97;7.33;;;;;;;;;;4864571;29;20120;-87
2022/03/08 01:32:21;;;;;;;23.33;8.10;;;;;;;;;;4864463;29;20479;-88
2022/03/08 01:34:47;;;;;;;19.42;7.30;;;;;;;;;;4864251;29;20448;-88
2022/03/08 01:37:14;;;;;;;24.20;7.95;;;;;;;;;;4874688;29;20028;-90
2022/03/08 01:39:40;;;;;;;23.50;8.57;;;;;;;;;;4888217;29;20046;-91
2022/03/08 01:42:10;;;;;;;17.75;7.70;;;;;;;;;;4876418;29;20071;-88
2022/03/08 01:44:36;;;;;;;21.00;8.10;;;;;;;;;;4863601;29;20045;-88
2022/03/08 01:47:02;;;;;;;22.60;7.35;;;;;;;;;;4863777;29;20036;-88
2022/03/08 01:49:28;;;;;;;20.13;7.28;;;;;;;;;;4863635;29;20045;-89
2022/03/08 01:51:55;;;;;;;16.88;7.18;;;;;;;;;;4863940;29;20033;-88
2022/03/08 01:54:21;;;;;;;18.05;6.97;;;;;;;;;;4863601;29;20031;-88
2022/03/08 01:56:47;;;;;;;16.88;7.45;;;;;;;;;;4863589;29;20030;-89
2022/03/08 01:59:13;;;;;;;22.52;7.93;;;;;;;;;;4863179;29;20238;-88
2022/03/08 02:01:39;;;;;;;23.48;7.45;;;;;;;;;;4863634;29;20055;-89
2022/03/08 02:04:06;;;;;;;15.38;6.75;;;;;;;;;;4863117;29;20037;-89
2022/03/08 02:06:40;;;;;;;15.38;6.45;;;;;;;;;;4864652;29;20384;-89
2022/03/08 02:09:13;;;;;;;15.82;6.85;;;;;;;;;;4863417;29;20026;-88
2022/03/08 02:11:48;;;;;;;18.95;6.82;;;;;;;;;;4863089;29;20030;-90
2022/03/08 02:14:16;;;;;;;16.33;6.80;;;;;;;;;;4863338;29;20033;-89
2022/03/08 02:16:42;;;;;;;18.63;6.70;;;;;;;;;;4864670;29;20104;-90
2022/03/08 02:19:11;;;;;;;21.83;8.00;;;;;;;;;;4863153;29;20391;-90
2022/03/08 02:21:38;;;;;;;15.70;7.20;;;;;;;;;;4863152;29;20471;-89
2022/03/08 02:24:04;;;;;;;17.20;7.43;;;;;;;;;;4847627;29;20049;-89
2022/03/08 02:26:31;;;;;;;19.17;7.47;;;;;;;;;;4863161;29;20057;-89
2022/03/08 02:28:58;;;;;;;19.02;7.70;;;;;;;;;;4863522;29;20505;-90
2022/03/08 02:31:24;;;;;;;22.00;8.18;;;;;;;;;;4863243;29;20058;-89
2022/03/08 02:33:52;;;;;;;15.52;7.38;;;;;;;;;;4862966;29;20049;-88
2022/03/08 02:36:18;;;;;;;20.02;7.88;;;;;;;;;;4862159;29;20029;-89
2022/03/08 02:38:44;;;;;;;15.40;7.07;;;;;;;;;;4862898;29;20068;-90
2022/03/08 02:41:10;;;;;;;22.48;7.95;;;;;;;;;;4862843;29;20485;-89
2022/03/08 02:43:36;;;;;;;19.70;7.88;;;;;;;;;;4863134;29;20045;-89
2022/03/08 02:46:03;;;;;;;18.88;8.30;;;;;;;;;;4863305;29;20033;-89
2022/03/08 02:48:29;;;;;;;15.32;7.05;;;;;;;;;;4864176;29;20040;-90
2022/03/08 02:51:04;;;;;;;17.80;6.90;;;;;;;;;;4862933;29;20499;-89
2022/03/08 02:53:31;;;;;;;14.85;7.28;;;;;;;;;;4862904;29;20029;-89
2022/03/08 02:55:57;;;;;;;17.33;6.53;;;;;;;;;;4862671;29;20065;-87
2022/03/08 02:58:24;;;;;;;23.02;7.47;;;;;;;;;;4863810;29;20029;-89
2022/03/08 03:00:50;;;;;;;12.93;6.85;;;;;;;;;;4863959;29;20029;-88
2022/03/08 03:03:16;;;;;;;18.42;7.05;;;;;;;;;;4862782;29;20041;-88
2022/03/08 03:05:43;;;;;;;16.02;7.13;;;;;;;;;;4863789;29;20109;-89
2022/03/08 03:08:09;;;;;;;14.77;6.10;;;;;;;;;;4863376;29;20030;-89
2022/03/08 03:10:35;;;;;;;18.33;7.78;;;;;;;;;;4864162;29;20037;-89
2022/03/08 03:13:01;;;;;;;16.67;7.40;;;;;;;;;;4870781;29;20029;-86
2022/03/08 03:15:28;;;;;;;16.10;6.22;;;;;;;;;;4880322;29;20029;-88
2022/03/08 03:17:55;;;;;;;17.83;6.95;;;;;;;;;;4864435;29;20068;-88
2022/03/08 03:20:22;;;;;;;14.25;6.30;;;;;;;;;;4880765;29;20014;-87
2022/03/08 03:22:48;;;;;;;17.08;6.68;;;;;;;;;;4886665;29;20025;-91
2022/03/08 03:25:15;;;;;;;18.27;7.20;;;;;;;;;;4865212;29;20487;-89
2022/03/08 03:27:44;;;;;;;17.40;7.10;;;;;;;;;;4862852;29;20045;-87
2022/03/08 03:30:11;;;;;;;18.73;6.78;;;;;;;;;;4863637;29;20052;-89
2022/03/08 03:32:38;;;;;;;17.85;7.00;;;;;;;;;;4861958;29;20059;-88
2022/03/08 03:35:05;;;;;;;18.67;6.88;;;;;;;;;;4881318;29;20028;-88
2022/03/08 03:37:31;;;;;;;17.85;6.97;;;;;;;;;;4864817;29;20043;-89
2022/03/08 03:39:57;;;;;;;16.23;6.55;;;;;;;;;;4881511;29;20100;-88
2022/03/08 03:42:26;;;;;;;16.20;7.13;;;;;;;;;;4865030;29;20033;-89
2022/03/08 03:44:53;;;;;;;15.50;7.18;;;;;;;;;;4864690;29;20036;-88
2022/03/08 03:47:19;;;;;;;16.00;6.53;;;;;;;;;;4864411;29;20053;-89
2022/03/08 03:49:45;;;;;;;16.35;6.78;;;;;;;;;;4864359;29;20040;-89
2022/03/08 03:52:11;;;;;;;15.88;6.93;;;;;;;;;;4864678;29;20021;-88
2022/03/08 03:54:43;;;;;;;16.40;5.82;;;;;;;;;;4864219;29;20033;-89
2022/03/08 03:57:11;;;;;;;14.93;6.03;;;;;;;;;;4880973;29;20029;-89
2022/03/08 03:59:38;;;;;;;16.38;6.90;;;;;;;;;;4864396;29;20052;-89
2022/03/08 04:02:04;;;;;;;17.50;6.97;;;;;;;;;;4864495;29;20049;-89
2022/03/08 04:04:30;;;;;;;16.13;6.20;;;;;;;;;;4864078;29;20049;-90
2022/03/08 04:06:57;;;;;;;18.13;6.60;;;;;;;;;;4864595;29;20055;-88
2022/03/08 04:09:23;;;;;;;16.35;6.18;;;;;;;;;;4864302;29;20028;-89
2022/03/08 04:11:49;;;;;;;18.30;6.65;;;;;;;;;;4864228;29;20440;-89
2022/03/08 04:14:15;;;;;;;19.33;6.43;;;;;;;;;;4864449;29;20065;-88
2022/03/08 04:16:42;;;;;;;17.25;6.65;;;;;;;;;;4880315;29;20446;-88
2022/03/08 04:19:08;;;;;;;15.02;6.90;;;;;;;;;;4864152;29;20124;-88
2022/03/08 04:21:34;;;;;;;16.75;6.43;;;;;;;;;;4864072;29;20033;-88
2022/03/08 04:24:00;;;;;;;17.45;6.80;;;;;;;;;;4863952;29;20043;-89
2022/03/08 04:26:27;;;;;;;13.30;5.47;;;;;;;;;;4864382;29;20113;-87
2022/03/08 04:28:53;;;;;;;21.80;6.75;;;;;;;;;;4863765;29;20064;-89
2022/03/08 04:31:19;;;;;;;13.60;6.32;;;;;;;;;;4864248;29;20025;-89
2022/03/08 04:33:45;;;;;;;13.48;6.10;;;;;;;;;;4863598;29;20100;-89
2022/03/08 04:36:11;;;;;;;16.10;6.55;;;;;;;;;;4883359;29;20045;-88
2022/03/08 04:38:37;;;;;;;20.52;6.43;;;;;;;;;;4871729;29;20037;-88
2022/03/08 04:41:05;;;;;;;14.07;6.30;;;;;;;;;;4863366;29;20053;-87
2022/03/08 04:43:36;;;;;;;16.65;6.88;;;;;;;;;;4863772;29;20037;-89
2022/03/08 04:46:12;;;;;;;18.70;6.72;;;;;;;;;;4864038;29;20029;-88
2022/03/08 04:48:41;;;;;;;15.93;6.32;;;;;;;;;;4863900;29;20039;-88
2022/03/08 04:51:16;;;;;;;19.17;6.60;;;;;;;;;;4863844;29;20081;-88
2022/03/08 04:53:52;;;;;;;19.02;6.18;;;;;;;;;;4863901;29;20116;-90
2022/03/08 04:56:27;;;;;;;15.90;5.95;;;;;;;;;;4864082;29;20077;-90
2022/03/08 04:59:02;;;;;;;19.58;6.57;;;;;;;;;;4864394;29;20075;-87
2022/03/08 05:01:37;;;;;;;25.30;6.47;;;;;;;;;;4869689;29;20017;-89
2022/03/08 05:04:06;;;;;;;15.27;5.68;;;;;;;;;;4887859;29;20049;-91
2022/03/08 05:06:38;;;;;;;17.13;6.80;;;;;;;;;;4878448;29;20068;-89
2022/03/08 05:09:05;;;;;;;15.25;6.28;;;;;;;;;;4864308;29;20095;-88
2022/03/08 05:11:31;;;;;;;18.13;6.85;;;;;;;;;;4863940;29;20048;-89
2022/03/08 05:13:57;;;;;;;14.82;6.18;;;;;;;;;;4863973;29;20116;-87
2022/03/08 05:16:23;;;;;;;16.35;6.45;;;;;;;;;;4880455;29;20038;-91
2022/03/08 05:19:10;;;;;;;15.95;6.25;;;;;;;;;;4864015;29;20052;-88
2022/03/08 05:21:36;;;;;;;15.73;6.70;;;;;;;;;;4863737;29;20021;-87
2022/03/08 05:24:02;;;;;;;15.55;5.85;;;;;;;;;;4863465;29;20483;-86
2022/03/08 05:30:14;;;;;;;23.23;7.80;;;;;;;;;;4788198;29;20036;-86
2022/03/08 05:32:40;;;;;;;17.10;5.60;;;;;;;;;;4809134;29;20046;-89
2022/03/08 05:35:07;;;;;;;14.35;5.43;;;;;;;;;;4804581;29;20167;-89
2022/03/08 05:40:20;;;;;;;15.70;5.50;;;;;;;;;;4891257;23;20093;-89
2022/03/08 05:42:48;;;;;;;18.30;6.28;;;;;;;;;;4880403;29;20501;-92
2022/03/08 05:45:17;;;;;;;15.73;6.22;;;;;;;;;;4865587;29;20037;-94
2022/03/08 05:47:56;;;;;;;11.95;5.75;;;;;;;;;;4886622;29;20045;-91
2022/03/08 05:50:29;;;;;;;19.33;6.93;;;;;;;;;;4880362;29;20037;-91
2022/03/08 05:53:10;;;;;;;19.63;6.10;;;;;;;;;;4866278;29;20025;-89
2022/03/08 05:55:46;;;;;;;17.73;7.05;;;;;;;;;;4864578;29;20127;-87
2022/03/08 05:58:30;;;;;;;19.05;6.43;;;;;;;;;;4864107;29;20116;-93
2022/03/08 06:00:57;;;;;;;19.55;6.88;;;;;;;;;;4864335;29;20056;-92
2022/03/08 06:03:26;;;;;;;23.77;7.50;;;;;;;;;;4863480;29;20093;-91
2022/03/08 06:05:58;;;;;;;22.30;8.55;;;;;;;;;;4863759;29;20029;-90
2022/03/08 06:08:27;;;;;;;20.52;8.93;;;;;;;;;;4864045;29;20165;-90
2022/03/08 06:10:54;;;;;;;20.13;7.55;;;;;;;;;;4864044;29;20497;-85
2022/03/08 06:13:20;;;;;;;22.05;8.90;;;;;;;;;;4872463;29;20100;-88
2022/03/08 06:15:49;;;;;;;18.42;8.10;;;;;;;;;;4867248;29;20052;-92
2022/03/08 06:18:15;;;;;;;14.77;6.55;;;;;;;;;;4866514;29;20116;-90
2022/03/08 06:20:42;;;;;;;19.83;7.88;;;;;;;;;;4883255;29;20032;-89
2022/03/08 06:23:08;;;;;;;20.23;8.25;;;;;;;;;;4867065;29;20059;-91
2022/03/08 06:25:34;;;;;;;16.95;7.90;;;;;;;;;;4866825;29;20105;-89
2022/03/08 06:28:00;;;;;;;18.27;8.02;;;;;;;;;;4883112;29;20100;-91
2022/03/08 06:30:27;;;;;;;17.30;7.65;;;;;;;;;;4866804;29;20470;-90
2022/03/08 07:53:38;;;;;;;7.65;3.03;;;;;;;;;;5652313;23;20263;-92
2022/03/08 08:08:23;;;;;;;7.55;3.50;;;;;;;;;;4896319;23;20052;-90
2022/03/08 08:13:53;;;;;;;6.63;2.63;;;;;;;;;;4882262;29;20040;-90
2022/03/08 08:16:20;;;;;;;8.60;3.10;;;;;;;;;;4864755;29;20082;-91
2022/03/08 08:19:04;;;;;;;6.60;3.25;;;;;;;;;;4865452;29;20029;-90
2022/03/08 08:21:30;;;;;;;7.05;2.88;;;;;;;;;;4865998;29;20180;-89
2022/03/08 08:40:28;;;;;;;6.85;2.40;;;;;;;;;;4902416;29;20033;-90
2022/03/08 08:42:54;;;;;;;8.68;2.00;;;;;;;;;;4879149;29;20082;-89
2022/03/08 08:45:20;;;;;;;5.53;2.20;;;;;;;;;;4874475;29;20040;-90
2022/03/08 08:47:46;;;;;;;6.53;2.17;;;;;;;;;;4865183;29;20096;-90
2022/03/08 08:50:13;;;;;;;8.70;2.15;;;;;;;;;;4864926;29;20037;-90
2022/03/08 08:52:39;;;;;;;6.22;2.30;;;;;;;;;;4864383;29;20021;-89
2022/03/08 08:55:08;;;;;;;6.75;2.60;;;;;;;;;;4865000;29;20029;-93
2022/03/08 08:57:34;;;;;;;8.00;2.40;;;;;;;;;;4865280;29;20037;-89
2022/03/08 09:00:01;;;;;;;4.50;2.38;;;;;;;;;;4864906;29;20032;-91
2022/03/08 09:02:27;;;;;;;5.18;1.90;;;;;;;;;;4863812;29;20033;-90
2022/03/08 09:04:53;;;;;;;8.45;2.60;;;;;;;;;;4864559;29;20041;-89
2022/03/08 09:07:19;;;;;;;7.55;2.28;;;;;;;;;;4864339;29;20094;-89
2022/03/08 09:09:47;;;;;;;5.22;1.92;;;;;;;;;;4863399;29;20037;-88
2022/03/08 09:12:13;;;;;;;6.20;2.42;;;;;;;;;;4864135;29;20056;-89
2022/03/08 09:14:39;;;;;;;3.28;1.80;;;;;;;;;;4863607;29;20047;-90
2022/03/08 09:17:06;;;;;;;5.90;2.17;;;;;;;;;;4863693;29;20030;-89
2022/03/08 09:19:32;;;;;;;3.05;1.48;;;;;;;;;;4864103;29;20029;-89
2022/03/08 09:21:58;;;;;;;14.18;1.67;;;;;;;;;;4863715;29;20029;-90
2022/03/08 09:24:24;;;;;;;4.68;1.75;;;;;;;;;;4880007;29;20037;-92
2022/03/08 09:26:50;;;;;;;5.88;2.10;;;;;;;;;;4863568;29;20432;-89
2022/03/08 09:29:17;;;;;;;5.35;2.00;;;;;;;;;;4863349;29;20085;-90
2022/03/08 09:31:43;;;;;;;5.47;2.13;;;;;;;;;;4863531;29;20040;-88
2022/03/08 09:34:10;;;;;;;7.20;2.10;;;;;;;;;;4863481;29;20599;-88
2022/03/08 09:36:45;;;;;;;4.35;1.58;;;;;;;;;;4864237;29;20033;-89
2022/03/08 09:39:17;;;;;;;3.85;1.63;;;;;;;;;;4864344;29;20083;-89
2022/03/08 09:41:43;;;;;;;4.22;1.88;;;;;;;;;;4856412;29;20029;-90
2022/03/08 09:44:13;;;;;;;2.80;1.33;;;;;;;;;;4872788;24;20056;-91
2022/03/08 09:46:40;;;;;;;4.25;2.00;;;;;;;;;;4847120;29;20045;-88
2022/03/08 09:49:09;;;;;;;3.17;1.50;;;;;;;;;;4847902;29;20174;-89
2022/03/08 09:54:57;;;;;;;7.75;2.65;;;;;;;;;;4903603;23;20144;-90
2022/03/08 10:00:44;;;;;;;6.30;2.35;;;;;;;;;;4885648;29;20121;-90
2022/03/08 10:03:11;;;;;;;5.45;2.65;;;;;;;;;;4867512;29;20123;-90
2022/03/08 10:05:40;;;;;;;4.72;2.80;;;;;;;;;;4868034;29;20041;-91
2022/03/08 10:08:22;;;;;;;3.72;2.03;;;;;;;;;;4866561;29;20029;-90
2022/03/08 10:11:02;;;;;;;5.13;2.47;;;;;;;;;;4866966;29;20029;-91
2022/03/08 10:13:31;;;;;;;6.30;2.15;;;;;;;;;;4866534;29;20029;-89
2022/03/08 10:16:12;;;;;;;5.68;2.30;;;;;;;;;;4866597;29;20033;-92
2022/03/08 10:18:48;;;;;;;5.57;2.70;;;;;;;;;;4867041;29;20062;-91
2022/03/08 10:21:31;;;;;;;7.57;2.92;;;;;;;;;;4866615;29;20033;-89
2022/03/08 10:23:58;;;;;;;6.60;2.92;;;;;;;;;;4866885;29;20056;-89
2022/03/08 10:26:25;;;;;;;5.45;2.80;;;;;;;;;;4868880;29;20044;-90
2022/03/08 10:28:55;;;;;;;7.15;2.95;;;;;;;;;;4889403;29;20100;-89
2022/03/08 10:31:22;;;;;;;7.05;3.00;;;;;;;;;;4888865;29;20017;-90
2022/03/08 10:33:51;;;;;;;8.85;3.22;;;;;;;;;;4867910;29;20021;-89
2022/03/08 10:36:31;;;;;;;7.18;3.35;;;;;;;;;;4867186;29;20024;-90
2022/03/08 10:39:08;;;;;;;8.10;2.83;;;;;;;;;;4866341;29;20064;-90
2022/03/08 10:41:47;;;;;;;8.95;3.30;;;;;;;;;;4866643;29;20124;-88
2022/03/08 10:44:13;;;;;;;9.57;3.72;;;;;;;;;;4866016;29;20380;-88
2022/03/08 10:46:39;;;;;;;8.00;3.35;;;;;;;;;;4865657;29;20037;-90
2022/03/08 10:49:14;;;;;;;10.70;3.20;;;;;;;;;;4865995;29;20060;-91
2022/03/08 10:51:40;;;;;;;7.57;2.92;;;;;;;;;;4882659;29;20025;-90
2022/03/08 10:54:11;;;;;;;7.25;3.50;;;;;;;;;;4866302;29;20479;-90
2022/03/08 10:56:42;;;;;;;6.72;3.00;;;;;;;;;;4865631;29;20029;-90
2022/03/08 10:59:10;;;;;;;7.38;1.88;;;;;;;;;;4865030;29;20021;-90
2022/03/08 11:01:36;;;;;;;10.18;2.55;;;;;;;;;;4866053;29;20390;-90
2022/03/08 11:04:02;;;;;;;6.82;2.58;;;;;;;;;;4865383;29;20487;-91
2022/03/08 11:06:31;;;;;;;6.82;2.28;;;;;;;;;;4866154;29;20056;-90
2022/03/08 11:08:57;;;;;;;7.20;2.40;;;;;;;;;;4866209;29;20040;-89
2022/03/08 11:11:24;;;;;;;7.40;2.83;;;;;;;;;;4866033;29;20111;-90
2022/03/08 11:13:51;;;;;;;4.03;1.60;;;;;;;;;;4865911;29;20037;-90
2022/03/08 11:16:18;;;;;;;9.25;2.35;;;;;;;;;;4865981;29;20029;-89
2022/03/08 11:18:48;;;;;;;5.53;1.77;;;;;;;;;;4865769;29;20136;-89
2022/03/08 11:21:14;;;;;;;5.15;2.30;;;;;;;;;;4867482;29;20028;-91
2022/03/08 11:23:43;;;;;;;4.93;2.00;;;;;;;;;;4867418;29;20064;-90
2022/03/08 11:26:10;;;;;;;10.15;2.70;;;;;;;;;;4862985;29;20094;-90
2022/03/08 11:28:38;;;;;;;6.30;2.45;;;;;;;;;;4865977;29;20112;-91
2022/03/08 11:31:04;;;;;;;1.85;1.13;;;;;;;;;;4865593;29;20041;-92
2022/03/08 11:33:36;;;;;;;4.45;2.35;;;;;;;;;;4850217;29;20044;-92
2022/03/08 11:36:31;;;;;;;6.97;2.65;;;;;;;;;;4864666;29;20379;-89
2022/03/08 11:39:18;;;;;;;10.20;2.80;;;;;;;;;;4834286;29;20042;-90
2022/03/08 11:41:46;;;;;;;9.20;3.30;;;;;;;;;;4858952;29;20120;-89
2022/03/08 11:44:21;;;;;;;7.35;3.35;;;;;;;;;;4848319;29;20133;-91
2022/03/08 11:47:18;;;;;;;8.70;3.58;;;;;;;;;;4844568;29;20081;-90
2022/03/08 11:52:15;;;;;;;3.90;1.83;;;;;;;;;;4879622;29;20053;-89
2022/03/08 11:57:45;;;;;;;9.35;3.78;;;;;;;;;;4881118;29;20382;-88
2022/03/08 12:00:17;;;;;;;8.02;3.60;;;;;;;;;;4862870;29;20082;-93
2022/03/08 12:03:22;;;;;;;6.63;3.50;;;;;;;;;;4865123;29;20100;-88
2022/03/08 12:05:59;;;;;;;;;;;;;;;;;;4772104;30;20052;-88
2022/03/08 12:08:28;;;;;;;8.50;3.40;;;;;;;;;;4755111;30;19967;-88
2022/03/08 12:11:13;;;;;;;7.72;3.85;;;;;;;;;;4807786;29;20128;-88
2022/03/08 12:13:47;;;;;;;7.80;3.50;;;;;;;;;;4842200;29;20033;-88
2022/03/08 12:16:25;;;;;;;8.98;4.40;;;;;;;;;;4826979;29;20543;-91
2022/03/08 12:18:52;;;;;;;10.23;4.55;;;;;;;;;;4846859;29;20041;-90
2022/03/08 12:21:22;;;;;;;10.10;4.35;;;;;;;;;;4851076;29;20026;-87
2022/03/08 12:24:05;;;;;;;8.85;4.10;;;;;;;;;;4846077;29;20500;-90
2022/03/08 12:26:50;;;;;;;9.88;3.55;;;;;;;;;;4841644;29;20042;-90
2022/03/08 12:29:16;;;;;;;8.50;3.67;;;;;;;;;;4826639;29;20030;-88
2022/03/08 12:31:57;;;;;;;8.93;3.85;;;;;;;;;;4826466;29;20438;-88
2022/03/08 12:34:39;;;;;;;7.57;3.80;;;;;;;;;;4826148;29;20136;-87
2022/03/08 12:37:05;;;;;;;9.02;4.00;;;;;;;;;;4849538;29;20047;-87
2022/03/08 12:39:45;;;;;;;7.10;3.35;;;;;;;;;;4863644;29;20035;-89
2022/03/08 12:42:20;;;;;;;8.45;3.65;;;;;;;;;;4855905;29;20051;-89
2022/03/08 12:44:55;;;;;;;6.25;3.40;;;;;;;;;;4857035;29;20129;-88
2022/03/08 12:47:22;;;;;;;6.07;3.40;;;;;;;;;;4845236;29;20054;-90
2022/03/08 12:49:52;;;;;;;11.00;3.90;;;;;;;;;;4873486;24;20065;-87
2022/03/08 12:52:18;;;;;;;6.53;3.28;;;;;;;;;;4862169;29;20037;-88
2022/03/08 12:54:45;;;;;;;9.32;4.57;;;;;;;;;;4861418;29;20113;-87
2022/03/08 12:57:12;;;;;;;11.52;4.70;;;;;;;;;;4860313;29;20487;-87
2022/03/08 13:00:12;;;;;;;9.82;4.10;;;;;;;;;;4859947;29;20470;-88
2022/03/08 13:02:42;;;;;;;8.50;4.30;;;;;;;;;;4860384;29;20098;-88
2022/03/08 13:05:14;;;;;;;9.65;4.80;;;;;;;;;;4860313;29;20038;-88
2022/03/08 13:07:51;;;;;;;8.40;3.60;;;;;;;;;;4860400;29;20025;-87
2022/03/08 13:10:17;;;;;;;9.95;4.80;;;;;;;;;;4861118;29;20102;-88
2022/03/08 13:12:57;;;;;;;9.35;4.68;;;;;;;;;;4860752;29;20032;-91
2022/03/08 13:15:38;;;;;;;7.65;4.20;;;;;;;;;;4861728;29;20025;-89
2022/03/08 13:18:08;;;;;;;11.18;5.15;;;;;;;;;;4861837;29;20030;-90
2022/03/08 13:20:50;;;;;;;9.60;4.35;;;;;;;;;;4857242;29;20034;-86
2022/03/08 13:23:24;;;;;;;9.68;4.47;;;;;;;;;;4860880;29;20037;-88
2022/03/08 13:26:00;;;;;;;9.13;4.25;;;;;;;;;;4853719;29;20068;-87
2022/03/08 13:28:36;;;;;;;8.00;4.10;;;;;;;;;;4855507;29;20030;-88
2022/03/08 13:31:12;;;;;;;8.48;3.90;;;;;;;;;;4852106;29;20482;-89
2022/03/08 13:36:55;;;;;;;10.40;3.58;;;;;;;;;;4830989;29;20042;-89
2022/03/08 13:42:37;;;;;;;8.38;4.25;;;;;;;;;;5071020;24;20191;-89
2022/03/08 13:45:39;;;;;;;8.32;4.15;;;;;;;;;;4855213;29;20087;-90
2022/03/08 13:48:05;;;;;;;6.25;3.95;;;;;;;;;;4792164;29;20058;-88
2022/03/08 13:50:32;;;;;;;9.98;4.40;;;;;;;;;;4839149;29;20045;-89
2022/03/08 13:53:20;;;;;;;7.80;3.60;;;;;;;;;;4848421;29;20038;-90
2022/03/08 13:55:46;;;;;;;10.43;3.72;;;;;;;;;;4848704;29;20067;-90
2022/03/08 13:58:15;;;;;;;10.68;5.50;;;;;;;;;;4848727;29;20036;-90
2022/03/08 14:00:41;;;;;;;10.63;4.60;;;;;;;;;;4848722;29;20101;-92
2022/03/08 14:03:20;;;;;;;7.93;4.03;;;;;;;;;;4851992;29;20048;-92
2022/03/08 14:05:59;;;;;;;8.23;4.40;;;;;;;;;;4849273;29;20506;-91
2022/03/08 14:08:25;;;;;;;6.63;3.65;;;;;;;;;;4871718;29;20034;-89
2022/03/08 14:11:11;;;;;;;6.65;3.28;;;;;;;;;;4871442;29;20061;-89
2022/03/08 14:13:48;;;;;;;8.77;3.20;;;;;;;;;;4848919;29;20037;-90
2022/03/08 14:16:14;;;;;;;9.63;3.20;;;;;;;;;;4848415;29;20025;-88
2022/03/08 14:18:53;;;;;;;6.00;2.95;;;;;;;;;;4864403;29;20430;-89
2022/03/08 14:21:41;;;;;;;6.88;2.75;;;;;;;;;;4848651;29;20392;-89
2022/03/08 14:24:11;;;;;;;4.97;2.67;;;;;;;;;;4848238;29;20041;-89
2022/03/08 14:26:56;;;;;;;7.55;3.00;;;;;;;;;;4848868;29;20029;-88
2022/03/08 14:29:25;;;;;;;6.80;3.28;;;;;;;;;;5385996;23;20024;-88
2022/03/08 14:31:52;;;;;;;4.07;2.22;;;;;;;;;;4867388;29;20090;-86
2022/03/08 14:34:22;;;;;;;7.45;2.75;;;;;;;;;;4876607;29;20097;-87
2022/03/08 14:36:51;;;;;;;7.20;2.88;;;;;;;;;;4865321;29;20044;-88
2022/03/08 14:39:36;;;;;;;4.45;2.50;;;;;;;;;;4864236;29;20032;-86
2022/03/08 14:42:04;;;;;;;5.72;2.42;;;;;;;;;;4865757;29;20462;-88
2022/03/08 14:44:32;;;;;;;6.75;2.58;;;;;;;;;;4862919;29;20045;-87
2022/03/08 14:46:58;;;;;;;8.73;2.70;;;;;;;;;;4863120;29;20093;-88
2022/03/08 14:49:25;;;;;;;6.68;2.50;;;;;;;;;;4863102;29;20041;-87
2022/03/08 14:51:51;;;;;;;6.10;2.65;;;;;;;;;;4862939;29;20090;-87
2022/03/08 14:54:17;;;;;;;5.78;2.60;;;;;;;;;;4862976;29;20029;-87
2022/03/08 14:56:46;;;;;;;7.40;2.72;;;;;;;;;;4863440;29;20029;-86
2022/03/08 14:59:13;;;;;;;5.22;2.45;;;;;;;;;;4863476;29;20116;-88
2022/03/08 15:01:39;;;;;;;5.10;2.45;;;;;;;;;;4862626;29;20025;-90
2022/03/08 15:04:09;;;;;;;5.65;2.50;;;;;;;;;;4862187;29;20049;-88
2022/03/08 15:06:36;;;;;;;6.38;2.80;;;;;;;;;;4862607;29;20396;-89
2022/03/08 15:09:06;;;;;;;6.43;3.35;;;;;;;;;;4862529;29;20478;-89
2022/03/08 15:11:41;;;;;;;5.53;2.67;;;;;;;;;;4862668;29;20085;-88
2022/03/08 15:14:14;;;;;;;7.32;2.80;;;;;;;;;;4862338;29;20029;-88
2022/03/08 15:16:41;;;;;;;4.73;2.63;;;;;;;;;;4863081;29;20162;-87
2022/03/08 15:22:39;;;;;;;5.70;2.90;;;;;;;;;;4863686;29;20088;-88
2022/03/08 15:25:06;;;;;;;5.13;2.85;;;;;;;;;;4818875;29;20050;-88
2022/03/08 15:27:32;;;;;;;6.60;3.42;;;;;;;;;;4862524;29;20045;-89
2022/03/08 15:30:08;;;;;;;6.40;3.15;;;;;;;;;;4864851;29;20075;-90
2022/03/08 15:32:34;;;;;;;5.55;3.28;;;;;;;;;;4864775;29;20029;-89
2022/03/08 15:35:07;;;;;;;7.35;3.22;;;;;;;;;;4865644;29;20041;-90
2022/03/08 15:37:34;;;;;;;6.13;3.17;;;;;;;;;;4868833;29;20025;-93
2022/03/08 15:40:07;;;;;;;6.68;3.60;;;;;;;;;;4865065;29;20100;-90
2022/03/08 15:45:11;;;;;;;12.88;4.93;;;;;;;;;;4886890;23;20061;-93
2022/03/08 15:47:38;;;;;;;10.45;4.97;;;;;;;;;;4853390;29;20565;-90
2022/03/08 15:50:05;;;;;;;6.13;3.30;;;;;;;;;;4876288;29;20021;-89
2022/03/08 15:52:31;;;;;;;8.45;4.03;;;;;;;;;;4857633;29;20037;-90
2022/03/08 15:54:57;;;;;;;10.35;4.05;;;;;;;;;;4857234;29;20152;-91
2022/03/08 15:57:23;;;;;;;8.10;4.20;;;;;;;;;;4879540;29;20089;-90
2022/03/08 15:59:50;;;;;;;6.05;3.15;;;;;;;;;;5019958;24;20052;-89
2022/03/08 16:02:16;;;;;;;9.10;4.22;;;;;;;;;;4853645;29;20124;-91
2022/03/08 16:04:44;;;;;;;8.13;3.70;;;;;;;;;;4864072;29;20041;-91
2022/03/08 16:07:11;;;;;;;10.27;3.25;;;;;;;;;;4869054;29;20041;-91
2022/03/08 16:09:38;;;;;;;7.60;3.08;;;;;;;;;;4846198;29;20041;-88
2022/03/08 16:12:05;;;;;;;6.38;3.28;;;;;;;;;;4845814;29;20527;-89
2022/03/08 16:14:31;;;;;;;5.90;2.78;;;;;;;;;;4843418;29;20037;-93
2022/03/08 16:16:57;;;;;;;6.20;3.10;;;;;;;;;;4845596;29;20040;-89
2022/03/08 16:19:23;;;;;;;7.65;3.15;;;;;;;;;;4845546;29;20048;-91
2022/03/08 16:21:50;;;;;;;9.63;3.47;;;;;;;;;;4845466;29;20033;-90
2022/03/08 16:24:17;;;;;;;9.75;3.90;;;;;;;;;;4846047;29;20170;-89
2022/03/08 16:26:44;;;;;;;6.57;3.33;;;;;;;;;;4846739;29;20034;-92
2022/03/08 16:29:10;;;;;;;6.80;2.90;;;;;;;;;;4845410;29;20037;-90
2022/03/08 16:31:45;;;;;;;6.88;2.88;;;;;;;;;;4845975;29;20586;-91
2022/03/08 16:34:12;;;;;;;7.32;3.08;;;;;;;;;;4845192;29;20392;-91
2022/03/08 16:36:54;;;;;;;5.57;3.08;;;;;;;;;;4844876;29;20037;-93
2022/03/08 16:39:33;;;;;;;8.00;3.30;;;;;;;;;;4836935;29;20559;-96
2022/03/08 16:41:59;;;;;;;7.63;3.67;;;;;;;;;;4834797;29;20033;-90
2022/03/08 16:44:51;;;;;;;6.90;3.10;;;;;;;;;;4828662;29;20034;-91
2022/03/08 16:47:18;;;;;;;9.95;3.20;;;;;;;;;;4831419;29;20447;-89
2022/03/08 16:49:44;;;;;;;5.88;3.17;;;;;;;;;;4846685;29;20041;-87
2022/03/08 16:52:11;;;;;;;6.53;3.00;;;;;;;;;;4841626;29;20033;-90
2022/03/08 16:54:37;;;;;;;7.30;3.25;;;;;;;;;;4868430;24;20053;-88
2022/03/08 16:57:03;;;;;;;7.30;3.13;;;;;;;;;;4863381;29;20033;-89
2022/03/08 16:59:30;;;;;;;6.15;2.78;;;;;;;;;;4864356;29;20033;-89
2022/03/08 17:01:56;;;;;;;8.18;3.28;;;;;;;;;;4881351;29;20029;-91
2022/03/08 17:04:22;;;;;;;6.55;2.88;;;;;;;;;;4864145;29;20049;-91
2022/03/08 17:06:48;;;;;;;8.52;3.58;;;;;;;;;;4864839;29;20057;-92
2022/03/08 17:09:14;;;;;;;9.90;3.42;;;;;;;;;;4864923;29;20036;-93
2022/03/08 17:11:42;;;;;;;8.98;2.85;;;;;;;;;;4882057;29;20029;-88
2022/03/08 17:14:12;;;;;;;9.32;3.53;;;;;;;;;;4865107;29;20029;-91